Time;durP1;ratioP1;P1;durP2;ratioP2;P2;SDS_P1;SDS_P2;PMS_P1;PMS_P2;Temp;Humidity;BMP_temperature;BMP_pressure;BME280_temperature;BME280_humidity;BME280_pressure;Samples;Min_cycle;Max_cycle;Signal;HPM_P1;HPM_P2
2022/08/23 05:25:10;;;;;;;;;2.00;2.00;;;;;22.59;61.08;101378.16;2411066;28;74031;-81
2022/08/23 05:26:21;;;;;;;;;4.75;2.50;;;;;22.58;61.11;101376.44;2409925;28;45414;-82
2022/08/23 05:27:32;;;;;;;;;3.00;2.00;;;;;22.59;61.14;101378.16;2413063;28;46485;-82
2022/08/23 05:28:44;;;;;;;;;4.75;3.00;;;;;22.56;61.10;101376.56;2413301;28;45273;-82
2022/08/23 05:29:55;;;;;;;;;3.00;3.00;;;;;22.57;60.70;101378.25;2413143;28;46462;-82
2022/08/23 05:31:21;;;;;;;;;4.00;3.00;;;;;22.57;60.76;101380.09;2412190;28;45392;-82
2022/08/23 05:32:31;;;;;;;;;3.75;3.75;;;;;22.55;60.77;101382.03;2412651;28;46459;-82
2022/08/23 05:33:43;;;;;;;;;3.00;3.00;;;;;22.54;61.09;101372.28;2412606;28;45403;-82
2022/08/23 05:34:53;;;;;;;;;3.00;3.00;;;;;22.54;60.79;101381.19;2413411;28;45585;-83
2022/08/23 05:36:05;;;;;;;;;3.50;3.00;;;;;22.54;61.01;101377.66;2413566;28;45438;-84
2022/08/23 05:37:16;;;;;;;;;3.00;2.75;;;;;22.56;60.91;101378.38;2413026;28;45527;-83
2022/08/23 05:38:26;;;;;;;;;2.75;2.75;;;;;22.54;60.87;101377.66;2412733;28;44868;-83
2022/08/23 05:39:37;;;;;;;;;2.50;2.25;;;;;22.55;60.95;101376.66;2411455;28;45434;-83
2022/08/23 05:40:50;;;;;;;;;4.50;3.25;;;;;22.53;60.96;101371.44;2412926;28;45391;-85
2022/08/23 05:42:00;;;;;;;;;2.00;2.00;;;;;22.54;61.10;101377.66;2412801;28;45711;-84
2022/08/23 05:43:10;;;;;;;;;3.00;3.00;;;;;22.54;61.35;101374.97;2413849;28;45164;-84
2022/08/23 05:44:21;;;;;;;;;3.75;3.00;;;;;22.54;61.15;101370.47;2412039;28;45540;-84
2022/08/23 05:45:31;;;;;;;;;3.00;3.00;;;;;22.55;60.93;101377.53;2412783;28;44717;-83
2022/08/23 05:46:42;;;;;;;;;3.50;3.50;;;;;22.56;61.04;101383.75;2413000;28;46396;-84
2022/08/23 05:47:52;;;;;;;;;3.75;3.75;;;;;22.55;61.37;101388.25;2412064;28;44668;-83
2022/08/23 05:49:03;;;;;;;;;2.50;2.00;;;;;22.55;61.15;101388.25;2411612;28;45443;-84
2022/08/23 05:50:13;;;;;;;;;2.25;2.00;;;;;22.55;60.89;101380.19;2412467;28;45442;-83
2022/08/23 05:51:28;;;;;;;;;3.00;2.00;;;;;22.55;60.50;101382.88;2412281;28;46291;-84
2022/08/23 05:52:38;;;;;;;;;3.50;2.00;;;;;22.57;60.70;101377.44;2410950;28;45308;-83
2022/08/23 05:53:51;;;;;;;;;3.00;3.00;;;;;22.57;60.56;101383.63;2408519;28;46475;-83
2022/08/23 05:55:01;;;;;;;;;4.00;3.00;;;;;22.58;61.12;101377.31;2420495;28;45450;-83
2022/08/23 05:56:16;;;;;;;;;4.00;2.25;;;;;22.60;60.95;101372.69;2412190;28;48190;-83
2022/08/23 05:57:27;;;;;;;;;2.00;2.00;;;;;22.61;61.15;101376.22;2412453;28;45506;-83
2022/08/23 05:58:37;;;;;;;;;3.75;3.00;;;;;22.60;60.68;101374.50;2412782;28;46225;-83
2022/08/23 05:59:47;;;;;;;;;3.50;3.50;;;;;22.61;60.69;101373.53;2412844;28;44669;-83
2022/08/23 06:00:58;;;;;;;;;2.50;2.00;;;;;22.63;60.75;101365.38;2413295;28;45157;-83
2022/08/23 06:02:09;;;;;;;;;2.50;2.50;;;;;22.64;60.94;101367.09;2413748;28;45157;-84
2022/08/23 06:03:19;;;;;;;;;2.25;2.25;;;;;22.64;60.93;101370.66;2413739;28;46531;-83
2022/08/23 06:04:29;;;;;;;;;3.00;2.75;;;;;22.66;60.92;101373.19;2413110;28;45405;-83
2022/08/23 06:05:40;;;;;;;;;4.50;2.00;;;;;22.67;61.07;101372.22;2413551;28;46165;-83
2022/08/23 06:06:55;;;;;;;;;2.00;2.00;;;;;22.67;59.94;101373.06;2413504;28;45338;-83
2022/08/23 06:08:05;;;;;;;;;2.00;2.00;;;;;22.69;60.37;101378.38;2412362;28;47932;-83
2022/08/23 06:09:17;;;;;;;;;1.50;1.50;;;;;22.70;60.78;101382.72;2412884;28;45308;-83
2022/08/23 06:10:27;;;;;;;;;4.75;3.00;;;;;22.70;60.33;101378.25;2413676;28;45351;-83
2022/08/23 06:11:38;;;;;;;;;3.00;3.00;;;;;22.70;60.57;101380.06;2413688;28;45701;-83
2022/08/23 06:12:48;;;;;;;;;5.25;3.00;;;;;22.72;60.75;101382.63;2412700;28;46515;-83
2022/08/23 06:14:01;;;;;;;;;3.25;3.00;;;;;22.72;61.00;101385.31;2413242;28;45245;-83
2022/08/23 06:15:11;;;;;;;;;2.50;2.50;;;;;22.73;61.15;101376.28;2403375;28;47250;-83
2022/08/23 06:16:25;;;;;;;;;2.00;2.00;;;;;22.74;60.56;101383.38;2403706;28;45258;-83
2022/08/23 06:17:36;;;;;;;;;3.25;2.00;;;;;22.75;61.16;101382.38;2410477;28;46455;-83
2022/08/23 06:18:47;;;;;;;;;4.50;3.50;;;;;22.75;61.15;101379.72;2413827;28;45220;-83
2022/08/23 06:19:57;;;;;;;;;3.00;3.00;;;;;22.76;61.06;101379.59;2412739;28;46606;-83
2022/08/23 06:21:10;;;;;;;;;3.25;2.75;;;;;22.77;61.04;101380.44;2413021;28;45306;-83
2022/08/23 06:22:20;;;;;;;;;3.75;3.75;;;;;22.77;60.73;101385.78;2413417;28;46303;-83
2022/08/23 06:23:31;;;;;;;;;4.00;2.50;;;;;22.76;60.76;101382.28;2412948;28;44760;-83
2022/08/23 06:24:41;;;;;;;;;4.25;3.00;;;;;22.75;60.86;101382.38;2410876;28;45499;-83
2022/08/23 06:25:52;;;;;;;;;4.00;2.75;;;;;22.76;60.86;101386.78;2413151;28;45342;-84
2022/08/23 06:27:02;;;;;;;;;0.75;0.75;;;;;22.76;61.60;101389.47;2413142;28;45350;-83
2022/08/23 06:28:12;;;;;;;;;4.00;2.50;;;;;22.77;61.04;101393.84;2408083;28;45311;-83
2022/08/23 06:29:23;;;;;;;;;4.00;2.25;;;;;22.76;61.37;101390.31;2414275;28;46456;-83
2022/08/23 06:30:33;;;;;;;;;2.00;2.00;;;;;22.77;61.00;101393.84;2415739;28;45236;-83
2022/08/23 06:31:49;;;;;;;;;2.25;2.25;;;;;22.78;61.52;101390.19;2416540;28;45253;-83
2022/08/23 06:32:59;;;;;;;;;4.00;2.25;;;;;22.78;61.20;101396.41;2415878;28;45422;-83
2022/08/23 06:34:17;;;;;;;;;3.25;3.25;;;;;22.78;61.19;101400.91;2413435;28;45370;-83
2022/08/23 06:35:28;;;;;;;;;3.50;3.50;;;;;22.79;60.71;101398.13;2412579;28;45232;-83
2022/08/23 06:36:39;;;;;;;;;4.25;3.00;;;;;22.80;60.46;101398.97;2408888;28;45324;-83
2022/08/23 06:37:49;;;;;;;;;5.00;3.50;;;;;22.85;61.22;101403.97;2413404;28;45173;-83
2022/08/23 06:38:59;;;;;;;;;2.00;2.00;;;;;22.85;61.30;101394.13;2413204;28;45290;-83
2022/08/23 06:40:10;;;;;;;;;4.75;3.00;;;;;22.86;61.13;101400.34;2413317;28;45435;-83
2022/08/23 06:41:20;;;;;;;;;3.75;3.00;;;;;22.88;61.24;101401.94;2412072;28;46283;-83
2022/08/23 06:42:31;;;;;;;;;4.25;4.00;;;;;22.91;60.57;101403.53;2409787;28;44832;-83
2022/08/23 06:43:41;;;;;;;;;3.75;3.00;;;;;22.91;60.49;101404.41;2412865;28;45413;-83
2022/08/23 06:44:52;;;;;;;;;2.75;2.50;;;;;22.95;61.09;101402.31;2413461;28;45335;-83
2022/08/23 06:46:26;;;;;;;;;4.25;3.00;;;;;22.99;60.71;101405.63;2412747;28;45324;-83
2022/08/23 06:47:36;;;;;;;;;2.00;2.00;;;;;23.01;60.20;101403.69;2412115;28;45311;-83
2022/08/23 06:48:47;;;;;;;;;5.50;4.00;;;;;23.02;59.99;101395.53;2404495;28;45320;-83
2022/08/23 06:49:57;;;;;;;;;3.25;3.25;;;;;23.06;60.38;101401.53;2413286;28;45291;-83
2022/08/23 06:51:13;;;;;;;;;2.75;2.75;;;;;23.08;60.62;101394.22;2413190;28;45266;-83
2022/08/23 06:52:24;;;;;;;;;3.25;3.00;;;;;23.10;60.78;101397.63;2412930;28;45420;-83
2022/08/23 06:53:34;;;;;;;;;2.00;2.00;;;;;23.12;60.14;101401.03;2412573;28;45199;-83
2022/08/23 06:54:46;;;;;;;;;3.75;3.00;;;;;23.13;60.39;101392.03;2412366;28;45220;-83
2022/08/23 06:55:56;;;;;;;;;3.25;2.75;;;;;23.16;60.17;101397.13;2413286;28;45300;-83
2022/08/23 06:57:07;;;;;;;;;4.00;3.00;;;;;23.20;60.71;101402.28;2413264;28;45215;-83
2022/08/23 06:58:17;;;;;;;;;2.75;2.75;;;;;23.21;60.00;101407.50;2413160;28;46482;-84
2022/08/23 06:59:28;;;;;;;;;1.00;1.00;;;;;23.23;59.81;101407.41;2413050;28;45185;-83
2022/08/23 07:00:38;;;;;;;;;2.75;2.75;;;;;23.24;60.21;101401.06;2411472;28;46447;-84
2022/08/23 07:01:52;;;;;;;;;2.50;2.50;;;;;23.27;60.38;101414.22;2412333;28;45236;-83
2022/08/23 07:03:03;;;;;;;;;2.00;2.00;;;;;23.29;60.59;101409.59;2412604;28;45397;-85
2022/08/23 07:04:17;;;;;;;;;5.25;2.00;;;;;23.30;60.35;101411.31;2412055;28;45369;-85
2022/08/23 07:05:27;;;;;;;;;2.00;2.00;;;;;23.31;60.48;101404.16;2412223;28;45748;-81
2022/08/23 07:06:38;;;;;;;;;4.25;4.25;;;;;23.33;59.86;101408.41;2413285;28;45221;-82
2022/08/23 07:07:48;;;;;;;;;4.00;4.00;;;;;23.35;60.09;101410.97;2413120;28;45236;-82
2022/08/23 07:08:59;;;;;;;;;4.25;4.00;;;;;23.38;59.96;101411.56;2413011;28;45228;-82
2022/08/23 07:10:09;;;;;;;;;3.75;3.00;;;;;23.38;60.03;101411.56;2412999;28;45414;-82
2022/08/23 07:11:20;;;;;;;;;2.75;2.75;;;;;23.43;59.28;101410.38;2413318;28;44671;-82
2022/08/23 07:12:31;;;;;;;;;0.75;0.75;;;;;23.45;58.53;101424.53;2413025;28;48348;-84
2022/08/23 07:13:41;;;;;;;;;3.00;3.00;;;;;23.47;58.63;101419.88;2412361;28;44696;-85
2022/08/23 07:14:52;;;;;;;;;3.00;3.00;;;;;23.49;58.67;101421.50;2411464;28;46236;-81
2022/08/23 07:16:02;;;;;;;;;3.75;3.25;;;;;23.54;59.13;101418.47;2412496;28;45479;-81
2022/08/23 07:17:13;;;;;;;;;4.00;2.00;;;;;23.56;59.25;101426.38;2413055;28;46508;-81
2022/08/23 07:18:24;;;;;;;;;5.25;3.00;;;;;23.59;59.48;101420.78;2411702;28;45397;-81
2022/08/23 07:19:35;;;;;;;;;5.00;2.25;;;;;23.61;59.53;101421.50;2412327;28;45364;-81
2022/08/23 07:20:45;;;;;;;;;2.00;2.00;;;;;23.66;59.05;101423.84;2413102;28;45462;-81
2022/08/23 07:21:57;;;;;;;;;3.50;3.50;;;;;23.69;58.00;101429.81;2412564;28;46392;-81
2022/08/23 07:23:08;;;;;;;;;2.00;2.00;;;;;23.71;58.73;101421.63;2412001;28;45246;-81
2022/08/23 07:24:21;;;;;;;;;6.00;5.00;;;;;23.74;58.90;101426.78;2411939;28;46467;-79
2022/08/23 07:25:31;;;;;;;;;4.00;4.00;;;;;23.76;59.29;101419.44;2413017;28;45369;-79
2022/08/23 07:26:44;;;;;;;;;1.75;1.75;;;;;23.80;58.49;101426.31;2412469;28;45386;-79
2022/08/23 07:27:54;;;;;;;;;4.75;3.25;;;;;23.85;58.67;101423.25;2412788;28;44555;-79
2022/08/23 07:29:06;;;;;;;;;4.25;4.25;;;;;23.88;59.03;101424.84;2413077;28;45184;-79
2022/08/23 07:30:16;;;;;;;;;2.50;2.50;;;;;23.92;59.50;101428.97;2412893;28;45264;-79
2022/08/23 07:31:30;;;;;;;;;2.25;2.25;;;;;23.96;59.04;101429.56;2412676;28;45242;-79
2022/08/23 07:32:41;;;;;;;;;3.75;3.00;;;;;23.98;58.13;101428.47;2412911;28;45302;-79
2022/08/23 07:33:53;;;;;;;;;4.00;3.00;;;;;24.03;58.28;101431.66;2412895;28;46224;-79
2022/08/23 07:35:04;;;;;;;;;3.50;3.50;;;;;24.05;58.35;101432.38;2413173;28;45421;-79
2022/08/23 07:36:17;;;;;;;;;2.00;1.75;;;;;24.10;58.52;101433.88;2412834;28;46726;-79
2022/08/23 07:37:29;;;;;;;;;4.50;2.75;;;;;24.12;57.20;101432.75;2412842;28;45414;-79
2022/08/23 07:38:39;;;;;;;;;3.25;3.00;;;;;24.16;57.44;101436.03;2412988;28;45478;-79
2022/08/23 07:39:50;;;;;;;;;2.00;2.00;;;;;24.18;57.13;101434.06;2411745;28;45720;-79
2022/08/23 07:41:02;;;;;;;;;2.00;2.00;;;;;24.22;57.69;101435.56;2412438;28;46327;-79
2022/08/23 07:42:12;;;;;;;;;2.50;2.00;;;;;24.25;57.93;101440.69;2412735;28;45319;-79
2022/08/23 07:43:23;;;;;;;;;4.00;3.00;;;;;24.30;58.25;101442.19;2412849;28;45342;-79
2022/08/23 07:44:33;;;;;;;;;3.75;3.00;;;;;24.33;56.69;101432.03;2412194;28;45272;-79
2022/08/23 07:45:46;;;;;;;;;3.00;2.75;;;;;24.37;57.08;101443.38;2413021;28;45433;-79
2022/08/23 07:46:57;;;;;;;;;4.50;1.75;;;;;24.42;58.06;101446.50;2411916;28;45275;-79
2022/08/23 07:48:08;;;;;;;;;3.00;3.00;;;;;24.45;57.74;101443.59;2412043;28;46142;-78
2022/08/23 07:49:18;;;;;;;;;2.00;2.00;;;;;24.47;57.77;101438.94;2412886;28;45336;-79
2022/08/23 07:50:29;;;;;;;;;4.00;3.00;;;;;24.53;58.25;101442.09;2412738;28;46362;-79
2022/08/23 07:51:44;;;;;;;;;6.00;3.00;;;;;24.57;57.15;101448.97;2412825;28;45014;-79
2022/08/23 07:52:55;;;;;;;;;3.75;3.75;;;;;24.61;57.21;101447.72;2412927;28;46591;-79
2022/08/23 07:54:08;;;;;;;;;4.50;4.00;;;;;24.62;57.11;101438.66;2412671;28;45286;-79
2022/08/23 07:55:18;;;;;;;;;4.25;4.25;;;;;24.67;56.86;101443.69;2412321;28;45686;-79
2022/08/23 07:56:29;;;;;;;;;5.00;4.00;;;;;24.68;56.85;101435.47;2412917;28;45289;-79
2022/08/23 07:57:39;;;;;;;;;8.00;4.25;;;;;24.70;56.82;101438.88;2412464;28;46209;-79
2022/08/23 07:58:50;;;;;;;;;6.00;4.75;;;;;24.71;56.26;101442.44;2412965;28;45458;-79
2022/08/23 08:00:00;;;;;;;;;5.25;4.00;;;;;24.73;56.80;101445.84;2412774;28;46137;-79
2022/08/23 08:01:15;;;;;;;;;6.25;5.00;;;;;24.73;56.72;101446.69;2412894;28;45350;-79
2022/08/23 08:02:25;;;;;;;;;5.25;4.00;;;;;24.72;56.31;101442.28;2412214;28;45457;-79
2022/08/23 08:03:37;;;;;;;;;7.00;4.25;;;;;24.76;56.19;101447.41;2412555;28;45182;-79
2022/08/23 08:04:47;;;;;;;;;4.50;3.25;;;;;24.76;56.57;101450.13;2412847;28;46653;-79
2022/08/23 08:05:59;;;;;;;;;5.75;3.50;;;;;24.78;56.29;101449.00;2412876;28;45232;-79
2022/08/23 08:07:10;;;;;;;;;3.25;3.25;;;;;24.81;56.60;101447.91;2411723;28;45767;-79
2022/08/23 08:08:21;;;;;;;;;3.75;3.75;;;;;24.82;56.84;101452.28;2412555;28;44615;-79
2022/08/23 08:09:31;;;;;;;;;4.00;4.00;;;;;24.85;56.75;101446.66;2411033;28;46237;-79
2022/08/23 08:10:42;;;;;;;;;7.25;4.50;;;;;24.88;57.04;101446.41;2412306;28;45354;-79
2022/08/23 08:11:53;;;;;;;;;5.25;4.50;;;;;24.92;56.38;101447.84;2411989;28;45537;-79
2022/08/23 08:13:04;;;;;;;;;6.75;5.00;;;;;24.92;55.99;101447.84;2412136;28;44756;-79
2022/08/23 08:14:16;;;;;;;;;6.25;3.75;;;;;24.94;56.06;101453.13;2412122;28;45430;-79
2022/08/23 08:15:26;;;;;;;;;4.00;4.00;;;;;24.94;55.96;101456.63;2412635;28;45173;-79
2022/08/23 08:16:41;;;;;;;;;3.50;3.25;;;;;24.99;55.77;101452.72;2411509;28;46352;-79
2022/08/23 08:17:51;;;;;;;;;3.00;3.00;;;;;25.02;56.18;101452.47;2411671;28;45429;-79
2022/08/23 08:19:06;;;;;;;;;5.25;4.25;;;;;25.03;56.61;101448.81;2412491;28;45322;-79
2022/08/23 08:20:18;;;;;;;;;5.00;5.00;;;;;25.08;57.00;101453.81;2412066;28;45333;-83
2022/08/23 08:21:29;;;;;;;;;4.25;3.75;;;;;25.10;56.17;101444.63;2408777;28;45709;-79
2022/08/23 08:22:40;;;;;;;;;2.50;2.00;;;;;25.13;55.28;101454.28;2411863;28;44801;-79
2022/08/23 08:23:51;;;;;;;;;5.00;2.50;;;;;25.15;54.53;101449.59;2417100;28;46295;-79
2022/08/23 08:25:02;;;;;;;;;4.75;4.75;;;;;25.17;55.88;101459.25;2420546;28;44622;-79
2022/08/23 08:26:13;;;;;;;;;2.75;2.75;;;;;25.17;55.43;101451.19;2410796;28;46036;-79
2022/08/23 08:27:23;;;;;;;;;3.75;3.00;;;;;25.20;54.57;101455.44;2411400;28;45434;-79
2022/08/23 08:28:35;;;;;;;;;6.25;6.00;;;;;25.24;55.05;101466.78;2412060;28;45244;-79
2022/08/23 08:29:45;;;;;;;;;2.25;2.25;;;;;25.25;55.31;101452.38;2412643;28;44694;-79
2022/08/23 08:30:57;;;;;;;;;2.00;2.00;;;;;25.26;54.44;101454.91;2412636;28;45228;-79
2022/08/23 08:32:08;;;;;;;;;7.25;5.25;;;;;25.29;54.98;101456.50;2412314;28;45363;-79
2022/08/23 08:33:19;;;;;;;;;6.25;4.75;;;;;25.32;55.29;101458.94;2412243;28;45372;-79
2022/08/23 08:34:29;;;;;;;;;4.75;4.75;;;;;25.32;55.60;101453.56;2412613;28;45487;-79
2022/08/23 08:35:39;;;;;;;;;5.00;4.50;;;;;25.34;55.29;101456.97;2412575;28;46396;-79
2022/08/23 08:36:53;;;;;;;;;7.50;5.75;;;;;25.39;55.37;101457.41;2409193;28;45470;-79
2022/08/23 08:38:03;;;;;;;;;7.75;6.50;;;;;25.39;54.72;101459.25;2411397;28;46042;-79
2022/08/23 08:39:17;;;;;;;;;7.00;7.00;;;;;25.40;54.56;101459.16;2409560;28;44824;-79
2022/08/23 08:40:33;;;;;;;;;7.25;6.50;;;;;25.42;55.11;101464.38;2411277;28;45291;-79
2022/08/23 08:42:11;;;;;;;;;6.00;6.00;;;;;25.46;55.43;101465.81;2413197;28;45336;-79
2022/08/23 08:43:52;;;;;;;;;6.00;6.00;;;;;25.49;55.29;101467.38;2407030;28;46521;-79
2022/08/23 08:45:09;;;;;;;;;6.00;6.00;;;;;25.48;55.05;101463.84;2412638;28;44681;-79
2022/08/23 08:46:23;;;;;;;;;9.00;6.25;;;;;25.53;54.53;101460.78;2410763;28;45513;-79
2022/08/23 08:47:44;;;;;;;;;6.50;4.00;;;;;25.53;54.82;101466.16;2409531;28;45362;-79
2022/08/23 08:48:59;;;;;;;;;5.50;3.50;;;;;25.57;53.88;101461.34;2406574;28;46555;-79
2022/08/23 08:50:23;;;;;;;;;5.75;3.25;;;;;25.60;53.81;101456.56;2412057;28;45486;-79
2022/08/23 08:51:39;;;;;;;;;4.00;4.00;;;;;25.62;53.86;101459.97;2414127;28;46152;-79
2022/08/23 08:53:01;;;;;;;;;4.00;3.00;;;;;25.61;53.73;101457.41;2413147;28;45482;-79
2022/08/23 08:54:16;;;;;;;;;4.00;4.00;;;;;25.61;53.32;101458.25;2414515;28;47076;-79
2022/08/23 08:55:31;;;;;;;;;2.50;2.50;;;;;25.65;53.49;101458.00;2412145;28;45884;-79
2022/08/23 08:56:48;;;;;;;;;3.00;3.00;;;;;25.62;52.95;101464.50;2413114;28;45520;-79
2022/08/23 08:58:00;;;;;;;;;3.25;3.25;;;;;25.63;53.58;101460.84;2413245;28;46032;-79
2022/08/23 08:59:23;;;;;;;;;4.75;4.75;;;;;25.62;53.91;101462.66;2410027;28;45564;-79
2022/08/23 09:00:37;;;;;;;;;5.00;5.00;;;;;25.65;54.34;101475.00;2419833;28;45232;-79
2022/08/23 09:01:48;;;;;;;;;7.75;6.00;;;;;25.67;54.19;101469.47;2415197;28;45351;-79
2022/08/23 09:03:03;;;;;;;;;4.75;4.75;;;;;25.69;54.60;101467.50;2419710;28;45287;-79
2022/08/23 09:04:13;;;;;;;;;4.00;3.00;;;;;25.71;53.83;101473.59;2415448;28;45490;-79
2022/08/23 09:05:30;;;;;;;;;3.00;2.75;;;;;25.72;53.36;101475.31;2415783;28;45761;-79
2022/08/23 09:06:40;;;;;;;;;8.25;5.00;;;;;25.76;53.20;101478.63;2417396;28;45450;-79
2022/08/23 09:08:04;;;;;;;;;4.00;3.50;;;;;25.76;53.35;101478.63;2415184;28;46526;-79
2022/08/23 09:09:34;;;;;;;;;3.25;3.25;;;;;25.77;53.16;101474.94;2415167;28;46448;-79
2022/08/23 09:10:50;;;;;;;;;8.00;5.50;;;;;25.78;53.75;101466.72;2415630;28;45307;-79
2022/08/23 09:12:18;;;;;;;;;4.25;3.75;;;;;25.81;53.78;101476.38;2412539;28;47194;-79
2022/08/23 09:13:38;;;;;;;;;3.50;3.50;;;;;25.83;53.20;101483.34;2412894;28;47043;-79
2022/08/23 09:15:17;;;;;;;;;7.25;5.50;;;;;25.82;53.12;101470.88;2413592;28;46298;-79
2022/08/23 09:16:36;;;;;;;;;4.50;3.00;;;;;25.83;52.77;101477.94;2413893;28;45569;-79
2022/08/23 09:17:59;;;;;;;;;4.25;4.00;;;;;25.83;53.25;101467.19;2413529;28;46579;-79
2022/08/23 09:19:10;;;;;;;;;3.00;3.00;;;;;25.83;52.89;101469.88;2413646;28;46307;-79
2022/08/23 09:20:25;;;;;;;;;2.00;2.00;;;;;25.84;52.88;101468.03;2411865;28;46390;-79
2022/08/23 09:21:56;;;;;;;;;4.25;4.00;;;;;25.87;52.34;101466.91;2414790;28;44796;-79
2022/08/23 09:23:13;;;;;;;;;5.50;4.00;;;;;25.85;52.15;101470.59;2414628;28;45419;-79
2022/08/23 09:24:25;;;;;;;;;6.00;5.75;;;;;25.87;53.35;101464.22;2413749;28;44856;-79
2022/08/23 09:25:35;;;;;;;;;3.00;3.00;;;;;25.88;52.98;101460.56;2416008;28;45432;-79
2022/08/23 09:26:45;;;;;;;;;5.75;5.50;;;;;25.91;53.72;101473.72;2413829;28;45502;-79
2022/08/23 09:27:56;;;;;;;;;7.50;6.50;;;;;25.91;53.68;101468.34;2409633;28;45890;-79
2022/08/23 09:29:24;;;;;;;;;5.50;5.25;;;;;25.94;53.48;101465.41;2413068;28;44845;-79
2022/08/23 09:30:48;;;;;;;;;2.25;2.00;;;;;25.98;52.25;101469.50;2414873;28;45458;-79
2022/08/23 09:32:01;;;;;;;;;1.00;1.00;;;;;25.97;52.03;101478.59;2417764;28;45548;-79
2022/08/23 09:33:22;;;;;;;;;2.50;2.50;;;;;25.98;52.32;101476.75;2411048;28;46326;-79
2022/08/23 09:34:33;;;;;;;;;3.75;3.00;;;;;26.00;52.60;101474.78;2415015;28;45406;-78
2022/08/23 09:36:04;;;;;;;;;3.50;3.50;;;;;26.00;51.70;101472.09;2415315;28;46103;-79
2022/08/23 09:37:21;;;;;;;;;3.50;3.50;;;;;25.96;52.12;101469.66;2416053;28;45367;-79
2022/08/23 09:38:32;;;;;;;;;3.00;2.75;;;;;25.95;51.92;101464.41;2415198;28;45911;-79
2022/08/23 09:40:03;;;;;;;;;3.25;3.25;;;;;25.95;52.10;101469.81;2413710;28;44793;-79
2022/08/23 09:41:19;;;;;;;;;3.25;3.25;;;;;25.93;52.50;101469.06;2413414;28;46687;-79
2022/08/23 09:42:38;;;;;;;;;3.75;3.75;;;;;25.95;52.31;101472.50;2414293;28;45399;-79
2022/08/23 09:43:49;;;;;;;;;6.50;5.00;;;;;25.94;53.19;101468.09;2413561;28;46492;-79
2022/08/23 09:45:00;;;;;;;;;7.00;6.00;;;;;25.96;52.94;101472.34;2410542;28;45713;-79
2022/08/23 09:46:11;;;;;;;;;5.00;5.00;;;;;25.99;52.98;101473.91;2410729;28;45371;-79
2022/08/23 09:47:34;;;;;;;;;4.00;4.00;;;;;26.02;52.76;101470.09;2414234;28;47075;-79
2022/08/23 09:48:45;;;;;;;;;5.50;5.00;;;;;26.06;53.35;101476.91;2413108;28;46195;-79
2022/08/23 09:50:07;;;;;;;;;5.75;5.75;;;;;26.09;53.60;101475.78;2414708;28;45203;-79
2022/08/23 09:51:26;;;;;;;;;7.50;6.00;;;;;26.10;53.40;101474.81;2414197;28;45549;-79
2022/08/23 09:52:38;;;;;;;;;8.50;7.00;;;;;26.13;53.41;101466.44;2411619;28;45508;-79
2022/08/23 09:53:52;;;;;;;;;9.25;7.25;;;;;26.12;53.43;101473.69;2413347;28;46170;-79
2022/08/23 09:55:11;;;;;;;;;6.75;5.75;;;;;26.13;53.77;101472.69;2414780;28;45522;-79
2022/08/23 09:56:25;;;;;;;;;5.75;5.00;;;;;26.17;53.63;101467.91;2415429;28;45591;-79
2022/08/23 09:57:36;;;;;;;;;7.00;7.00;;;;;26.18;53.03;101469.59;2415298;28;45455;-79
2022/08/23 09:58:49;;;;;;;;;3.50;3.50;;;;;26.21;54.11;101471.16;2415291;28;45562;-79
2022/08/23 10:00:26;;;;;;;;;5.00;5.00;;;;;26.24;53.30;101469.06;2413405;28;44864;-78
2022/08/23 10:01:37;;;;;;;;;5.00;5.00;;;;;26.25;53.28;101468.03;2415041;28;45540;-78
2022/08/23 10:02:47;;;;;;;;;4.00;4.00;;;;;26.26;53.65;101464.38;2415595;28;45651;-79
2022/08/23 10:04:21;;;;;;;;;3.00;3.00;;;;;26.30;53.08;101456.84;2414841;28;45477;-78
2022/08/23 10:05:38;;;;;;;;;4.25;4.25;;;;;26.31;52.42;101458.56;2415118;28;45267;-78
2022/08/23 10:06:49;;;;;;;;;4.00;4.00;;;;;26.32;52.59;101460.28;2413400;28;46315;-79
2022/08/23 10:08:01;;;;;;;;;4.25;4.25;;;;;26.32;53.44;101459.44;2408478;28;46967;-79
2022/08/23 10:09:26;;;;;;;;;4.00;4.00;;;;;26.33;53.06;101466.50;2413721;28;45524;-79
2022/08/23 10:10:52;;;;;;;;;6.00;4.00;;;;;26.31;52.92;101461.28;2415341;28;45568;-79
2022/08/23 10:12:02;;;;;;;;;3.25;3.25;;;;;26.29;53.38;101449.78;2418137;28;46031;-79
2022/08/23 10:13:14;;;;;;;;;2.00;2.00;;;;;26.29;53.50;101456.03;2413536;28;44752;-79
2022/08/23 10:14:27;;;;;;;;;6.00;4.00;;;;;26.30;52.45;101457.72;2414001;28;46513;-79
2022/08/23 10:16:03;;;;;;;;;3.25;3.25;;;;;26.33;53.20;101458.44;2415863;28;45279;-79
2022/08/23 10:17:22;;;;;;;;;3.50;2.00;;;;;26.32;52.77;101454.03;2411999;28;45584;-79
2022/08/23 10:19:01;;;;;;;;;3.00;2.00;;;;;26.32;52.67;101449.50;2415015;28;45394;-79
2022/08/23 10:20:32;;;;;;;;;1.25;1.25;;;;;26.33;52.77;101448.50;2416268;28;45637;-78
2022/08/23 10:22:18;;;;;;;;;3.00;3.00;;;;;26.32;52.08;101446.81;2414040;28;44849;-79
2022/08/23 10:23:37;;;;;;;;;3.00;2.00;;;;;26.32;52.26;101443.28;2414783;28;48754;-79
2022/08/23 10:24:53;;;;;;;;;2.75;2.50;;;;;26.30;51.71;101444.25;2412274;28;45430;-79
2022/08/23 10:26:10;;;;;;;;;2.00;2.00;;;;;26.30;53.58;101446.94;2414873;28;48226;-79
2022/08/23 10:29:39;;;;;;;;;2.25;2.00;;;;;26.31;52.95;101445.09;2415670;28;46293;-79
2022/08/23 10:31:23;;;;;;;;;2.00;2.00;;;;;26.31;53.26;101437.03;2412423;28;45977;-79
2022/08/23 10:33:01;;;;;;;;;3.00;3.00;;;;;26.32;52.11;101437.88;2412924;28;46499;-79
2022/08/23 10:34:56;;;;;;;;;3.75;2.00;;;;;26.30;52.30;101436.16;2416863;28;45765;-79
2022/08/23 10:36:32;;;;;;;;;2.75;2.75;;;;;26.26;53.01;101440.13;2417654;28;46598;-79
2022/08/23 10:38:16;;;;;;;;;3.00;3.00;;;;;26.25;52.12;101438.41;2423222;28;45580;-79
2022/08/23 10:39:28;;;;;;;;;2.75;2.75;;;;;26.24;52.43;101442.13;2417286;28;46351;-79
2022/08/23 10:41:14;;;;;;;;;3.00;1.00;;;;;26.24;52.86;101435.88;2414344;28;45450;-79
2022/08/23 10:42:48;;;;;;;;;1.00;1.00;;;;;26.22;52.41;101430.63;2410438;28;46282;-79
2022/08/23 10:44:13;;;;;;;;;1.00;1.00;;;;;26.25;52.82;101430.34;2415765;28;45414;-79
2022/08/23 10:45:39;;;;;;;;;2.00;2.00;;;;;26.25;52.06;101433.03;2413352;28;45557;-79
2022/08/23 10:47:09;;;;;;;;;1.00;1.00;;;;;26.25;52.41;101427.63;2413044;28;45498;-79
2022/08/23 10:48:42;;;;;;;;;3.25;2.00;;;;;26.30;52.39;101438.84;2408921;28;46324;-79
2022/08/23 10:49:54;;;;;;;;;2.25;1.00;;;;;26.32;53.07;101432.50;2412935;28;44870;-79
2022/08/23 10:51:20;;;;;;;;;2.00;2.00;;;;;26.34;52.54;101430.50;2415176;28;46473;-79
2022/08/23 10:52:54;;;;;;;;;3.00;2.00;;;;;26.38;53.30;101431.91;2414565;28;45311;-79
2022/08/23 10:54:08;;;;;;;;;1.00;1.00;;;;;26.42;52.26;101430.69;2418646;28;45599;-79
2022/08/23 10:56:01;;;;;;;;;1.50;1.50;;;;;26.47;52.92;101433.81;2414311;28;45406;-79
2022/08/23 10:57:20;;;;;;;;;1.50;1.50;;;;;26.50;52.98;101422.75;2415159;28;47236;-79
2022/08/23 10:58:45;;;;;;;;;2.50;2.50;;;;;26.56;51.76;101429.44;2415313;28;45545;-79
2022/08/23 10:59:57;;;;;;;;;2.00;2.00;;;;;26.58;52.02;101429.28;2415108;28;46950;-80
2022/08/23 11:01:14;;;;;;;;;2.50;2.50;;;;;26.59;52.79;101425.63;2414480;28;46109;-79
2022/08/23 11:02:30;;;;;;;;;2.00;2.00;;;;;26.59;52.87;101423.78;2413618;28;45260;-79
2022/08/23 11:04:05;;;;;;;;;3.00;3.00;;;;;26.61;53.11;101421.78;2416074;28;45438;-78
2022/08/23 11:05:30;;;;;;;;;3.00;3.00;;;;;26.63;51.64;101419.81;2407221;28;47052;-79
2022/08/23 11:06:48;;;;;;;;;2.00;2.00;;;;;26.64;52.70;101426.03;2415075;28;44909;-79
2022/08/23 11:08:11;;;;;;;;;2.00;2.00;;;;;26.64;52.34;101426.03;2414834;28;46403;-79
2022/08/23 11:09:21;;;;;;;;;2.75;1.25;;;;;26.65;52.28;101422.34;2416159;28;45509;-79
2022/08/23 11:10:40;;;;;;;;;2.00;2.00;;;;;26.67;52.16;101420.34;2413893;28;46622;-78
2022/08/23 11:12:17;;;;;;;;;2.25;2.25;;;;;26.65;51.74;101408.88;2414590;28;45448;-79
2022/08/23 11:13:30;;;;;;;;;2.00;2.00;;;;;26.66;51.67;101417.81;2413219;28;45596;-79
2022/08/23 11:14:56;;;;;;;;;3.00;2.00;;;;;26.68;52.09;101422.06;2414865;28;45449;-79
2022/08/23 11:16:20;;;;;;;;;2.00;2.00;;;;;26.65;52.26;101413.41;2414661;28;45679;-79
2022/08/23 11:18:02;;;;;;;;;3.00;1.00;;;;;26.67;52.10;101414.97;2411609;28;45409;-80